Hawick, United Kingdom
Current Conditions -  °F | °C
As of 11:50 AM on Tuesday 27 Jan 2015 (Local Time) from EGOM Reporting Station
Haze Haze  
Wind Chill: 32°   Ceiling: 200
Heat Index: 41°   Visibility: 3mi
Dew Point: 41°   Wind: 20mph
Humidity: 100%   Direction: 250°WSW
Pressure: 30.12"   Gusts: NA
Location:  55.42°N, 2.79°W
Report Text: EGOM 271150Z 25017KT 5000 BR OVC002 05/05 Q1020 AMB
Loading
Personal Weather Stations






























Interactive Weather Map New forecast layout! Learn more

10-Day Weather Forecast

Advertisements
Track Severe Weather on mobile